createdAt,value
2022-12-20T01:39:26.577Z,17.54
2022-12-20T01:40:28.859Z,17.68
2022-12-20T01:41:31.469Z,17.80
2022-12-20T01:42:33.745Z,17.89
2022-12-20T01:43:50.697Z,18.02
2022-12-20T01:44:59.084Z,18.12
2022-12-20T01:46:01.879Z,18.25
2022-12-20T01:47:04.573Z,18.36
2022-12-20T01:48:07.879Z,18.48
2022-12-20T01:50:40.460Z,18.82
2022-12-20T01:53:04.032Z,19.03
2022-12-20T01:55:30.828Z,19.22
2022-12-20T01:56:33.534Z,19.19
2022-12-20T01:57:46.728Z,19.25
2022-12-20T01:58:50.067Z,19.34
2022-12-20T01:59:52.342Z,19.42
2022-12-20T02:00:55.672Z,19.48
2022-12-20T02:01:58.420Z,19.54
2022-12-20T02:03:04.502Z,19.59
2022-12-20T02:04:08.222Z,19.65
2022-12-20T02:05:11.072Z,19.70
2022-12-20T02:06:18.298Z,19.75
2022-12-20T02:07:23.670Z,19.79
2022-12-20T02:08:27.610Z,19.83
2022-12-20T02:09:31.579Z,19.86
2022-12-20T02:11:00.946Z,19.90
2022-12-20T02:12:07.881Z,19.92
2022-12-20T02:13:14.233Z,19.96
2022-12-20T02:14:39.897Z,19.99
2022-12-20T02:17:21.623Z,20.14
2022-12-20T02:20:04.360Z,20.18
2022-12-20T02:22:37.435Z,20.21
2022-12-20T02:23:43.251Z,20.11
2022-12-20T02:24:54.777Z,20.12
2022-12-20T02:26:36.638Z,20.13
2022-12-20T02:28:05.645Z,20.16
2022-12-20T02:29:26.895Z,20.17
2022-12-20T02:30:33.238Z,20.17
2022-12-20T02:31:55.236Z,20.17
2022-12-20T02:33:03.174Z,20.17
2022-12-20T02:34:06.785Z,20.18
2022-12-20T02:35:09.631Z,20.18
2022-12-20T02:36:14.750Z,20.17
2022-12-20T02:37:17.092Z,20.18
2022-12-20T02:38:33.526Z,20.19
2022-12-20T02:39:36.761Z,20.20
2022-12-20T02:40:40.230Z,20.21
2022-12-20T02:42:59.175Z,20.34
2022-12-20T02:44:04.509Z,20.23
2022-12-20T02:45:08.327Z,20.24
2022-12-20T02:46:10.710Z,20.25
2022-12-20T02:47:16.362Z,20.25
2022-12-20T02:48:18.495Z,20.27
2022-12-20T02:49:23.344Z,20.27
2022-12-20T02:51:43.993Z,20.42
2022-12-20T02:52:46.416Z,20.32
2022-12-20T02:53:48.819Z,20.33
2022-12-20T02:54:51.824Z,20.34
2022-12-20T02:57:19.956Z,20.46
2022-12-20T02:58:38.326Z,20.36
2022-12-20T02:59:47.058Z,20.36
2022-12-20T03:00:50.132Z,20.36
2022-12-20T03:01:53.563Z,20.37
2022-12-20T03:02:59.891Z,20.37
2022-12-20T03:04:06.683Z,20.37
2022-12-20T03:05:10.242Z,20.38
2022-12-20T03:06:13.039Z,20.39
2022-12-20T03:07:16.575Z,20.39
2022-12-20T03:08:19.539Z,20.40
2022-12-20T03:09:21.863Z,20.39
2022-12-20T03:10:24.582Z,20.31
2022-12-20T03:11:27.046Z,20.31
2022-12-20T03:12:29.397Z,20.40
2022-12-20T03:13:32.388Z,20.40
2022-12-20T03:14:37.554Z,20.42
2022-12-20T03:15:41.869Z,20.42
2022-12-20T03:16:45.310Z,20.42
2022-12-20T03:17:48.128Z,20.44
2022-12-20T03:18:50.355Z,20.44
2022-12-20T03:19:53.371Z,20.43
2022-12-20T03:20:55.964Z,20.44
2022-12-20T03:21:58.141Z,20.44
2022-12-20T03:23:00.247Z,20.45
2022-12-20T03:24:02.747Z,20.45
2022-12-20T03:25:06.906Z,20.44
2022-12-20T03:26:11.197Z,20.45
2022-12-20T03:27:16.377Z,20.45
2022-12-20T03:28:18.690Z,20.46
2022-12-20T03:29:20.805Z,20.45
2022-12-20T03:30:23.596Z,20.46
2022-12-20T03:31:25.916Z,20.45
2022-12-20T03:32:30.631Z,20.47
2022-12-20T03:33:32.799Z,20.46
2022-12-20T03:34:35.856Z,20.46
2022-12-20T03:35:40.063Z,20.46
2022-12-20T03:36:45.199Z,20.47
2022-12-20T03:37:47.396Z,20.46
2022-12-20T03:38:50.771Z,20.48
2022-12-20T03:39:53.697Z,20.48
2022-12-20T03:40:55.996Z,20.48
2022-12-20T03:41:58.083Z,20.49
2022-12-20T03:43:00.717Z,20.49
2022-12-20T03:44:03.075Z,20.49
2022-12-20T03:45:06.746Z,20.49
2022-12-20T03:46:09.372Z,20.50
2022-12-20T03:47:13.509Z,20.49
2022-12-20T03:48:15.692Z,20.50
2022-12-20T03:49:18.317Z,20.50
2022-12-20T03:50:22.368Z,20.51
2022-12-20T03:51:24.566Z,20.51
2022-12-20T03:52:27.820Z,20.51
2022-12-20T03:53:30.169Z,20.52
2022-12-20T03:54:32.468Z,20.52
2022-12-20T03:55:45.300Z,20.53
2022-12-20T03:56:47.151Z,20.53
2022-12-20T03:57:49.625Z,20.53
2022-12-20T03:58:59.703Z,20.54
2022-12-20T04:00:04.013Z,20.54
2022-12-20T04:01:22.186Z,20.54
2022-12-20T04:02:25.206Z,20.54
2022-12-20T04:03:28.443Z,20.54
2022-12-20T04:04:31.218Z,20.53
2022-12-20T04:05:34.063Z,20.54
2022-12-20T04:06:36.705Z,20.54
2022-12-20T04:07:40.871Z,20.53
2022-12-20T04:08:43.666Z,20.52
2022-12-20T04:09:46.097Z,20.54
2022-12-20T04:10:48.957Z,20.53
2022-12-20T04:11:51.227Z,20.53
2022-12-20T04:12:53.354Z,20.54
2022-12-20T04:13:56.918Z,20.49
2022-12-20T04:14:59.163Z,20.49
2022-12-20T04:16:02.904Z,20.54
2022-12-20T04:17:07.167Z,20.55
2022-12-20T04:18:09.925Z,20.54
2022-12-20T04:19:12.868Z,20.54
2022-12-20T04:20:17.520Z,20.54
2022-12-20T04:21:27.657Z,20.55
2022-12-20T04:22:30.890Z,20.54
2022-12-20T04:23:35.823Z,20.55
2022-12-20T04:24:39.198Z,20.54
2022-12-20T04:25:55.224Z,20.54
2022-12-20T04:26:57.988Z,20.53
2022-12-20T04:28:00.298Z,20.53
2022-12-20T04:29:03.785Z,20.52
2022-12-20T04:30:09.083Z,20.52
2022-12-20T04:31:11.775Z,20.51
2022-12-20T04:32:14.264Z,20.51
2022-12-20T04:33:16.931Z,20.51
2022-12-20T04:34:20.532Z,20.51
2022-12-20T04:35:23.107Z,20.51
2022-12-20T04:36:25.538Z,20.51
2022-12-20T04:37:28.324Z,20.50
2022-12-20T04:38:32.214Z,20.52
2022-12-20T04:39:34.746Z,20.51
2022-12-20T04:40:52.138Z,20.51
2022-12-20T04:41:54.655Z,20.51
2022-12-20T04:42:56.944Z,20.51
2022-12-20T04:43:59.227Z,20.51
2022-12-20T04:45:05.239Z,20.51
2022-12-20T04:46:08.128Z,20.50
2022-12-20T04:47:11.266Z,20.50
2022-12-20T04:48:45.974Z,20.49
2022-12-20T04:49:18.111Z,20.50
2022-12-20T04:50:20.499Z,20.50
2022-12-20T04:51:22.740Z,20.50
2022-12-20T04:52:25.345Z,20.51
2022-12-20T04:53:28.078Z,20.50
2022-12-20T04:54:30.443Z,20.50
2022-12-20T04:55:38.469Z,20.50
2022-12-20T04:56:41.121Z,20.50
2022-12-20T04:57:45.068Z,20.50
2022-12-20T04:58:48.737Z,20.51
2022-12-20T04:59:51.373Z,20.50
2022-12-20T05:00:54.427Z,20.50
2022-12-20T05:01:59.592Z,20.50
2022-12-20T05:03:06.719Z,20.50
2022-12-20T05:04:10.112Z,20.51
2022-12-20T05:05:12.577Z,20.51
2022-12-20T05:06:16.822Z,20.50
2022-12-20T05:07:19.112Z,20.51
2022-12-20T05:08:23.440Z,20.51
2022-12-20T05:09:26.571Z,20.51
2022-12-20T05:10:30.807Z,20.51
2022-12-20T05:11:35.504Z,20.51
2022-12-20T05:12:38.954Z,20.51
2022-12-20T05:13:42.048Z,20.50
2022-12-20T05:14:44.427Z,20.50
2022-12-20T05:15:51.618Z,20.50
2022-12-20T05:16:56.490Z,20.51
2022-12-20T05:18:01.062Z,20.51
2022-12-20T05:19:05.127Z,20.51
2022-12-20T05:20:11.437Z,20.50
2022-12-20T05:21:14.939Z,20.51
2022-12-20T05:22:17.628Z,20.50
2022-12-20T05:23:22.026Z,20.50
2022-12-20T05:24:25.640Z,20.50
2022-12-20T05:25:32.622Z,20.49
2022-12-20T05:26:37.430Z,20.49
2022-12-20T05:27:39.772Z,20.50
2022-12-20T05:28:42.359Z,20.49
2022-12-20T05:29:44.654Z,20.49
2022-12-20T05:30:47.997Z,20.49
2022-12-20T05:31:50.232Z,20.49
2022-12-20T05:32:52.672Z,20.50
2022-12-20T05:33:55.065Z,20.49
2022-12-20T05:34:57.760Z,20.49
2022-12-20T05:36:00.024Z,20.49
2022-12-20T05:37:03.103Z,20.49
2022-12-20T05:38:06.037Z,20.49
2022-12-20T05:39:08.543Z,20.49
2022-12-20T05:40:13.106Z,20.49
2022-12-20T05:41:15.287Z,20.49
2022-12-20T05:42:19.323Z,20.49
2022-12-20T05:43:23.424Z,20.50
2022-12-20T05:44:26.418Z,20.49
2022-12-20T05:45:30.031Z,20.51
2022-12-20T05:46:34.240Z,20.50
2022-12-20T05:47:38.347Z,20.50
2022-12-20T05:48:42.395Z,20.50
2022-12-20T05:49:45.863Z,20.49
2022-12-20T05:50:50.791Z,20.49
2022-12-20T05:52:01.649Z,20.49
2022-12-20T05:53:10.979Z,20.50
2022-12-20T05:54:08.283Z,20.49
2022-12-20T05:55:12.345Z,20.51
2022-12-20T05:56:15.710Z,20.50
2022-12-20T10:51:41.419Z,17.16
2022-12-20T10:52:44.924Z,17.09
2022-12-20T10:53:52.235Z,17.16
2022-12-20T10:54:54.374Z,17.25
2022-12-20T10:56:22.301Z,17.37
2022-12-20T10:57:26.432Z,17.47
2022-12-20T10:58:32.586Z,17.63
2022-12-20T10:59:36.145Z,17.74
2022-12-20T11:00:38.971Z,17.86
2022-12-20T11:01:45.797Z,17.96
2022-12-20T11:02:48.139Z,18.07
2022-12-20T11:03:54.278Z,18.19
2022-12-20T11:06:16.857Z,18.53
2022-12-20T11:07:24.273Z,18.51
2022-12-20T11:08:42.724Z,18.60
2022-12-20T11:09:33.690Z,18.68
2022-12-20T11:10:36.577Z,18.79
2022-12-20T11:11:38.671Z,18.79
2022-12-20T11:12:44.552Z,18.89
2022-12-20T11:13:47.289Z,18.97
2022-12-20T11:14:49.425Z,19.04
2022-12-20T11:15:53.011Z,19.09
2022-12-20T11:16:56.457Z,19.15
2022-12-20T11:19:39.963Z,19.38
2022-12-20T11:20:44.464Z,19.30
2022-12-20T11:21:53.311Z,19.35
2022-12-20T11:23:13.259Z,19.38
2022-12-20T11:24:40.950Z,19.43
2022-12-20T11:26:02.723Z,19.47
2022-12-20T11:29:08.687Z,19.64
2022-12-20T11:31:48.989Z,19.67
2022-12-20T11:33:10.185Z,19.57
2022-12-20T11:34:16.307Z,19.59
2022-12-20T11:35:22.265Z,19.60
2022-12-20T11:38:15.926Z,19.75
2022-12-20T11:40:38.142Z,19.78
2022-12-20T11:42:05.572Z,19.68
2022-12-20T11:43:24.255Z,19.69
2022-12-20T11:47:26.784Z,19.71
2022-12-20T11:48:35.550Z,19.71
2022-12-20T11:49:44.963Z,19.71
2022-12-20T11:51:16.730Z,19.71
2022-12-20T11:52:29.614Z,19.71
2022-12-20T11:55:05.435Z,19.82
2022-12-20T11:57:27.419Z,19.82
2022-12-20T11:59:50.252Z,19.83
2022-12-20T12:02:14.070Z,19.86
2022-12-20T12:03:34.485Z,19.76
2022-12-20T12:06:04.011Z,19.91
2022-12-20T12:08:40.842Z,19.92
2022-12-20T12:12:03.901Z,19.93
2022-12-20T12:12:26.255Z,19.84
2022-12-20T12:13:30.584Z,19.84
2022-12-20T12:14:56.628Z,19.84
2022-12-20T12:18:45.981Z,19.97
2022-12-20T12:19:49.372Z,19.86
2022-12-20T12:21:08.340Z,19.86
2022-12-20T12:22:08.311Z,19.87
2022-12-20T12:23:17.698Z,19.87
2022-12-20T12:24:32.938Z,19.87
2022-12-20T12:25:36.254Z,19.87
2022-12-20T12:26:38.963Z,19.88
2022-12-20T12:27:41.553Z,19.89
2022-12-20T12:28:43.735Z,19.89
2022-12-20T12:29:46.475Z,19.90
2022-12-20T12:32:10.153Z,20.03
2022-12-20T12:33:22.071Z,19.91
2022-12-20T12:36:12.353Z,19.92
2022-12-20T12:37:46.127Z,19.93
2022-12-20T12:39:10.559Z,19.93
2022-12-20T12:41:49.585Z,20.04
2022-12-20T12:44:45.009Z,20.00
2022-12-20T12:46:00.705Z,19.89
2022-12-20T12:47:07.408Z,19.88
2022-12-20T12:48:19.508Z,19.88
2022-12-20T12:49:22.552Z,19.87
2022-12-20T12:50:31.897Z,19.88
2022-12-20T12:52:50.483Z,20.00
2022-12-20T12:53:54.305Z,19.89
2022-12-20T12:54:57.297Z,19.89
2022-12-20T12:56:42.711Z,19.91
2022-12-20T12:57:25.202Z,19.91
2022-12-20T12:58:29.934Z,19.91
2022-12-20T12:59:36.922Z,19.93
2022-12-20T13:00:57.245Z,19.93
2022-12-20T13:02:09.561Z,19.94
2022-12-20T13:03:15.249Z,19.93
2022-12-20T13:04:23.674Z,19.93
2022-12-20T13:05:29.954Z,19.93
2022-12-20T13:06:36.077Z,19.93
2022-12-20T13:07:41.877Z,19.94
2022-12-20T13:08:58.427Z,19.94
2022-12-20T13:11:30.410Z,20.05
2022-12-20T13:12:43.250Z,19.93
2022-12-20T13:13:46.996Z,19.93
2022-12-20T13:14:49.276Z,19.93
2022-12-20T13:15:51.896Z,19.94
2022-12-20T13:17:18.281Z,19.95
2022-12-20T13:18:13.483Z,19.98
2022-12-20T13:20:32.906Z,20.12
2022-12-20T13:21:35.501Z,20.02
2022-12-20T13:22:37.699Z,20.02
2022-12-20T13:23:39.995Z,20.04
2022-12-20T13:24:58.887Z,20.04
2022-12-20T13:26:01.031Z,20.05
2022-12-20T13:27:06.239Z,20.07
2022-12-20T13:28:28.502Z,20.06
2022-12-20T13:29:35.551Z,20.07
2022-12-20T13:30:37.843Z,20.06
2022-12-20T13:31:41.515Z,20.05
2022-12-20T13:32:57.038Z,20.06
2022-12-20T13:34:00.581Z,20.05
2022-12-20T13:35:04.798Z,20.05
2022-12-20T13:36:13.910Z,20.04
2022-12-20T13:37:28.316Z,20.03
2022-12-20T13:38:52.928Z,20.03
2022-12-20T13:39:55.144Z,20.02
2022-12-20T13:40:58.142Z,20.02
2022-12-20T13:42:13.910Z,20.02
2022-12-20T13:43:22.727Z,20.02
2022-12-20T13:44:34.723Z,20.01
2022-12-20T13:45:38.218Z,20.00
2022-12-20T13:46:44.216Z,20.00
2022-12-20T13:47:50.668Z,20.00
2022-12-20T13:50:26.576Z,20.09
2022-12-20T13:51:29.328Z,19.98
2022-12-20T13:52:34.420Z,19.98
2022-12-20T13:53:37.073Z,19.96
2022-12-20T13:54:43.471Z,19.97
2022-12-20T13:55:45.709Z,19.97
2022-12-20T13:56:49.450Z,19.96
2022-12-20T13:57:51.710Z,19.96
2022-12-20T13:58:55.526Z,19.98
2022-12-20T14:00:06.380Z,19.97
2022-12-20T14:01:08.186Z,19.98
2022-12-20T14:02:13.709Z,19.97
2022-12-20T14:03:20.731Z,19.97
2022-12-20T14:05:37.440Z,20.06
2022-12-20T14:06:40.531Z,19.96
2022-12-20T14:07:42.636Z,19.95
2022-12-20T14:08:46.952Z,19.95
2022-12-20T14:09:55.363Z,19.94
2022-12-20T14:11:18.939Z,19.98
2022-12-20T14:12:27.392Z,19.95
2022-12-20T14:13:26.643Z,19.95
2022-12-20T14:14:28.869Z,19.95
2022-12-20T14:15:34.494Z,19.94
2022-12-20T14:16:36.790Z,19.94
2022-12-20T14:17:44.458Z,19.95
2022-12-20T14:20:19.789Z,20.05
2022-12-20T14:21:22.997Z,19.93
2022-12-20T14:22:25.645Z,19.93
2022-12-20T18:38:25.780Z,17.36
2022-12-20T18:39:28.069Z,17.29
2022-12-20T18:40:30.321Z,17.39
2022-12-20T18:41:33.714Z,17.48
2022-12-20T18:42:37.201Z,17.58
2022-12-20T18:43:39.667Z,17.70
2022-12-20T18:44:42.143Z,17.83
2022-12-20T18:45:44.355Z,17.96
2022-12-20T18:46:48.190Z,18.06
2022-12-20T18:47:51.399Z,18.19
2022-12-20T18:48:55.048Z,18.29
2022-12-20T18:50:01.156Z,18.40
2022-12-20T18:52:19.961Z,18.77
2022-12-20T18:53:24.390Z,18.76
2022-12-20T18:54:27.587Z,18.85
2022-12-20T18:55:32.020Z,18.94
2022-12-20T18:56:37.381Z,19.03
2022-12-20T18:57:41.352Z,19.13
2022-12-20T18:58:44.024Z,19.20
2022-12-20T18:59:47.846Z,19.26
2022-12-20T19:00:58.770Z,19.35
2022-12-20T19:02:02.157Z,19.40
2022-12-20T19:03:06.088Z,19.47
2022-12-20T19:04:09.858Z,19.52
2022-12-20T19:05:12.926Z,19.57
2022-12-20T19:06:15.640Z,19.60
2022-12-20T19:07:18.267Z,19.66
2022-12-20T19:08:26.504Z,19.71
2022-12-20T19:09:29.129Z,19.74
2022-12-20T19:10:31.827Z,19.78
2022-12-20T19:11:35.554Z,19.81
2022-12-20T19:12:39.579Z,19.84
2022-12-20T19:13:42.484Z,19.87
2022-12-20T19:14:45.553Z,19.90
2022-12-20T19:15:48.783Z,19.93
2022-12-20T19:16:52.099Z,19.95
2022-12-20T19:17:55.013Z,19.98
2022-12-20T19:19:01.593Z,20.00
2022-12-20T19:20:06.360Z,20.02
2022-12-20T19:21:22.664Z,20.04
2022-12-20T19:22:27.088Z,20.07
2022-12-20T19:23:30.113Z,20.09
2022-12-20T19:24:33.256Z,20.11
2022-12-20T19:25:36.755Z,20.12
2022-12-20T19:26:39.817Z,20.14
2022-12-20T19:27:43.003Z,20.14
2022-12-20T19:28:46.651Z,20.17
2022-12-20T19:29:49.154Z,20.17
2022-12-20T19:30:52.837Z,20.19
2022-12-20T19:31:57.220Z,20.19
2022-12-20T19:32:59.837Z,20.19
2022-12-20T19:34:04.931Z,20.22
2022-12-20T19:35:45.108Z,20.22
2022-12-20T19:36:15.667Z,20.24
2022-12-20T19:37:18.385Z,20.24
2022-12-20T19:38:22.158Z,20.25
2022-12-20T19:39:24.631Z,20.25
2022-12-20T19:40:29.276Z,20.26
2022-12-20T19:41:32.263Z,20.27
2022-12-20T19:42:35.771Z,20.27
2022-12-20T19:43:38.296Z,20.28
2022-12-20T19:44:41.572Z,20.28
2022-12-20T19:45:45.057Z,20.29
2022-12-20T19:46:47.323Z,20.28
2022-12-20T19:47:50.803Z,20.29
2022-12-20T19:48:54.445Z,20.31
2022-12-20T19:49:56.873Z,20.31
2022-12-20T19:51:03.376Z,20.31
2022-12-20T19:52:05.713Z,20.32
2022-12-20T19:53:07.964Z,20.32
2022-12-20T19:54:10.257Z,20.33
2022-12-20T19:55:13.476Z,20.34
2022-12-20T19:56:18.524Z,20.33
2022-12-20T19:57:22.449Z,20.34
2022-12-20T19:58:26.635Z,20.34
2022-12-20T19:59:31.061Z,20.33
2022-12-20T20:00:33.330Z,20.33
2022-12-20T20:01:36.237Z,20.34
2022-12-20T20:02:39.663Z,20.33
2022-12-20T20:03:42.473Z,20.33
2022-12-20T20:04:46.806Z,20.32
2022-12-20T20:05:50.145Z,20.32
2022-12-20T20:06:53.615Z,20.32
2022-12-20T20:07:55.826Z,20.32
2022-12-20T20:08:58.004Z,20.31
2022-12-20T20:10:00.591Z,20.31
2022-12-20T20:11:09.328Z,20.31
2022-12-20T20:12:08.026Z,20.30
2022-12-20T20:13:11.059Z,20.29
2022-12-20T20:14:15.448Z,20.30
2022-12-20T20:15:18.658Z,20.29
2022-12-20T20:16:22.849Z,20.30
2022-12-20T20:17:25.029Z,20.29
2022-12-20T20:18:27.578Z,20.28
2022-12-20T20:19:30.323Z,20.31
2022-12-20T20:20:32.611Z,20.29
2022-12-20T20:21:35.718Z,20.30
2022-12-20T20:22:39.193Z,20.29
2022-12-20T20:23:43.875Z,20.29
2022-12-20T20:24:47.546Z,20.29
2022-12-20T20:25:52.659Z,20.31
2022-12-20T20:26:55.516Z,20.31
2022-12-20T20:27:57.751Z,20.29
2022-12-20T20:29:01.765Z,20.31
2022-12-20T20:30:05.616Z,20.32
2022-12-20T20:31:12.241Z,20.32
2022-12-20T20:32:15.457Z,20.33
2022-12-20T20:33:17.725Z,20.32
2022-12-20T20:34:19.877Z,20.33
2022-12-20T20:35:22.033Z,20.34
2022-12-20T20:36:26.140Z,20.35
2022-12-20T20:37:28.191Z,20.36
2022-12-20T20:38:31.978Z,20.37
2022-12-20T20:39:35.321Z,20.37
2022-12-20T20:40:37.800Z,20.39
2022-12-20T20:41:40.321Z,20.39
2022-12-20T20:42:42.511Z,20.42
2022-12-20T20:43:45.848Z,20.42
2022-12-20T20:44:48.006Z,20.43
2022-12-20T20:45:51.327Z,20.45
2022-12-20T20:46:54.327Z,20.47
2022-12-20T20:48:01.175Z,20.48
2022-12-20T20:49:02.345Z,20.48
2022-12-20T20:50:07.007Z,20.48
2022-12-20T20:51:10.026Z,20.50
2022-12-20T20:52:14.372Z,20.50
2022-12-20T20:53:17.769Z,20.51
2022-12-20T20:54:21.372Z,20.52
2022-12-20T20:55:24.875Z,20.52
2022-12-20T20:56:27.752Z,20.54
2022-12-20T20:57:30.666Z,20.54
2022-12-20T20:58:34.111Z,20.55
2022-12-20T20:59:37.363Z,20.56
2022-12-20T21:00:39.744Z,20.56
2022-12-20T21:01:42.012Z,20.56
2022-12-20T21:02:44.453Z,20.58
2022-12-20T21:03:46.853Z,20.58
2022-12-20T21:06:37.029Z,20.72
2022-12-20T21:07:10.640Z,20.61
2022-12-20T21:08:12.973Z,20.63
2022-12-20T21:09:15.609Z,20.63
2022-12-20T21:10:17.932Z,20.64
2022-12-20T21:11:21.000Z,20.65
2022-12-20T21:12:23.832Z,20.66
2022-12-20T21:13:26.379Z,20.68
2022-12-20T21:14:53.601Z,20.68
2022-12-20T21:15:34.316Z,20.68
2022-12-20T21:16:36.999Z,20.69
2022-12-20T21:17:39.431Z,20.70
2022-12-20T21:18:43.524Z,20.69
2022-12-20T21:19:45.642Z,20.70
2022-12-20T21:20:48.264Z,20.71
2022-12-20T21:21:50.594Z,20.71
2022-12-20T21:22:53.329Z,20.71
2022-12-20T21:23:56.886Z,20.71
2022-12-20T21:24:59.651Z,20.72
2022-12-20T21:26:01.987Z,20.72
2022-12-20T21:27:05.160Z,20.72
2022-12-20T21:28:09.783Z,20.73
2022-12-20T21:29:12.033Z,20.73
2022-12-20T21:30:14.944Z,20.73
2022-12-20T21:31:18.076Z,20.72
2022-12-20T21:32:21.705Z,20.74
2022-12-20T21:33:24.171Z,20.74
2022-12-20T21:34:26.365Z,20.73
2022-12-20T21:35:29.145Z,20.74
2022-12-20T21:36:31.340Z,20.76
2022-12-20T21:37:34.045Z,20.76
2022-12-20T21:38:36.598Z,20.77
2022-12-20T21:39:38.645Z,20.76
2022-12-20T21:40:42.064Z,20.77
2022-12-20T21:41:47.058Z,20.76
2022-12-20T21:42:49.168Z,20.77
2022-12-20T21:43:53.457Z,20.76
2022-12-20T21:44:55.919Z,20.77
2022-12-20T21:45:59.256Z,20.77
2022-12-20T21:47:02.217Z,20.78
2022-12-20T21:48:05.578Z,20.79
